TUI213 LTAI-EDDL
Flight info
| Callsign | TUI213 |
|---|---|
| Flight time | N/A |
| Altitude | 34000 |
| Route | EKNUD1K/18L EKNUD UQ26 DIGBO UL615 VADEN DCT UTEKA/N0458F360 DCT BABIT DCT SASAL DCT LAMSI DCT TESDU DCT AMETU T852 TINSA T854 DOMUX DOMUX1A |
| Aircraft | B738/M-SDE2E3FGHIRWXY/LB1 |
Departure
| Time | 2026-05-06 15:52 |
|---|---|
| Airport | Antalya International Airport (LTAI) |
Arrival
| Time | N/A |
|---|---|
| Airport | Düsseldorf Airport (EDDL) |
| Time | Latitude | Longitude | Altitude | Speed | Heading |
|---|---|---|---|---|---|
| 2026-05-06 14:59 | 36.89791 | 30.79798 | 197 ft | 0 kts | 180° |
| 2026-05-06 15:36 | 36.89806 | 30.79798 | 207 ft | 4 kts | 178° |
| 2026-05-06 15:37 | 36.89833 | 30.79795 | 206 ft | 4 kts | 169° |
| 2026-05-06 15:37 | 36.89848 | 30.79791 | 202 ft | 1 kts | 165° |
| 2026-05-06 15:37 | 36.89850 | 30.79791 | 201 ft | 0 kts | 165° |
| 2026-05-06 15:42 | 36.89848 | 30.79792 | 191 ft | 3 kts | 155° |
| 2026-05-06 15:42 | 36.89823 | 30.79857 | 192 ft | 13 kts | 100° |
| 2026-05-06 15:43 | 36.89806 | 30.79904 | 198 ft | 2 kts | 137° |
| 2026-05-06 15:43 | 36.89789 | 30.79914 | 197 ft | 5 kts | 159° |
| 2026-05-06 15:43 | 36.89737 | 30.79915 | 203 ft | 8 kts | 183° |
| 2026-05-06 15:43 | 36.89681 | 30.79907 | 191 ft | 8 kts | 181° |
| 2026-05-06 15:44 | 36.89647 | 30.79910 | 194 ft | 0 kts | 169° |
| 2026-05-06 15:44 | 36.89636 | 30.79917 | 195 ft | 4 kts | 147° |
| 2026-05-06 15:44 | 36.89622 | 30.79960 | 191 ft | 7 kts | 97° |
| 2026-05-06 15:44 | 36.89615 | 30.80038 | 195 ft | 11 kts | 94° |
| 2026-05-06 15:45 | 36.89607 | 30.80147 | 199 ft | 13 kts | 96° |
| 2026-05-06 15:45 | 36.89597 | 30.80258 | 194 ft | 13 kts | 97° |
| 2026-05-06 15:45 | 36.89586 | 30.80366 | 195 ft | 12 kts | 97° |
| 2026-05-06 15:45 | 36.89576 | 30.80471 | 198 ft | 12 kts | 97° |
| 2026-05-06 15:46 | 36.89568 | 30.80574 | 191 ft | 12 kts | 94° |
| 2026-05-06 15:46 | 36.89559 | 30.80650 | 195 ft | 2 kts | 99° |
| 2026-05-06 15:46 | 36.89563 | 30.80666 | 195 ft | 4 kts | 62° |
| 2026-05-06 15:46 | 36.89602 | 30.80692 | 190 ft | 9 kts | 13° |
| 2026-05-06 15:47 | 36.89672 | 30.80703 | 191 ft | 11 kts | 7° |
| 2026-05-06 15:47 | 36.89751 | 30.80715 | 191 ft | 12 kts | 6° |
| 2026-05-06 15:47 | 36.89835 | 30.80726 | 206 ft | 13 kts | 5° |
| 2026-05-06 15:47 | 36.89926 | 30.80739 | 201 ft | 14 kts | 6° |
| 2026-05-06 15:48 | 36.90028 | 30.80754 | 191 ft | 16 kts | 6° |
| 2026-05-06 15:48 | 36.90142 | 30.80769 | 196 ft | 17 kts | 6° |
| 2026-05-06 15:48 | 36.90267 | 30.80785 | 199 ft | 19 kts | 6° |
| 2026-05-06 15:48 | 36.90402 | 30.80803 | 190 ft | 21 kts | 6° |
| 2026-05-06 15:49 | 36.90548 | 30.80824 | 194 ft | 21 kts | 7° |
| 2026-05-06 15:49 | 36.90692 | 30.80843 | 193 ft | 20 kts | 6° |
| 2026-05-06 15:49 | 36.90831 | 30.80863 | 193 ft | 20 kts | 6° |
| 2026-05-06 15:49 | 36.90965 | 30.80882 | 194 ft | 19 kts | 6° |
| 2026-05-06 15:50 | 36.91087 | 30.80904 | 193 ft | 16 kts | 18° |
| 2026-05-06 15:50 | 36.91135 | 30.80986 | 196 ft | 11 kts | 90° |
| 2026-05-06 15:50 | 36.91134 | 30.81080 | 201 ft | 11 kts | 87° |
| 2026-05-06 15:50 | 36.91092 | 30.81138 | 192 ft | 9 kts | 178° |
| 2026-05-06 15:51 | 36.90989 | 30.81129 | 192 ft | 37 kts | 186° |
| 2026-05-06 15:51 | 36.90506 | 30.81059 | 193 ft | 103 kts | 186° |
| 2026-05-06 15:51 | 36.89594 | 30.80943 | 201 ft | 157 kts | 186° |
| 2026-05-06 15:51 | 36.88436 | 30.80749 | 667 ft | 170 kts | 187° |
| 2026-05-06 15:52 | 36.87246 | 30.80647 | 1391 ft | 178 kts | 174° |
| 2026-05-06 15:52 | 36.86066 | 30.81005 | 2200 ft | 171 kts | 166° |
| 2026-05-06 15:52 | 36.84828 | 30.81342 | 2548 ft | 198 kts | 169° |
| 2026-05-06 15:52 | 36.83414 | 30.81671 | 2903 ft | 212 kts | 171° |
| 2026-05-06 15:53 | 36.81968 | 30.81962 | 3548 ft | 209 kts | 172° |
| 2026-05-06 15:53 | 36.80512 | 30.82208 | 4035 ft | 215 kts | 170° |
| 2026-05-06 15:53 | 36.79049 | 30.82687 | 4461 ft | 223 kts | 156° |
| 2026-05-06 15:53 | 36.77626 | 30.83564 | 4699 ft | 239 kts | 150° |
| 2026-05-06 15:54 | 36.76085 | 30.84591 | 4983 ft | 255 kts | 152° |
| 2026-05-06 15:54 | 36.74489 | 30.85658 | 5396 ft | 266 kts | 144° |
| 2026-05-06 15:54 | 36.73183 | 30.87395 | 5589 ft | 286 kts | 114° |
| 2026-05-06 15:54 | 36.72841 | 30.89765 | 6277 ft | 281 kts | 81° |
| 2026-05-06 15:55 | 36.73114 | 30.92125 | 7322 ft | 272 kts | 82° |
| 2026-05-06 15:55 | 36.73148 | 30.94541 | 7862 ft | 286 kts | 91° |
| 2026-05-06 15:55 | 36.72982 | 30.97058 | 8439 ft | 295 kts | 93° |
| 2026-05-06 15:55 | 36.72747 | 30.99619 | 9153 ft | 299 kts | 93° |
| 2026-05-06 15:56 | 36.72615 | 31.02198 | 9992 ft | 297 kts | 89° |
| 2026-05-06 15:56 | 36.72594 | 31.04762 | 10730 ft | 296 kts | 86° |
| 2026-05-06 15:56 | 36.72711 | 31.07342 | 11301 ft | 302 kts | 79° |
| 2026-05-06 15:56 | 36.73202 | 31.09929 | 11656 ft | 313 kts | 64° |
| 2026-05-06 15:57 | 36.74427 | 31.12234 | 11692 ft | 331 kts | 39° |
| 2026-05-06 15:57 | 36.76413 | 31.13668 | 12122 ft | 334 kts | 14° |
| 2026-05-06 15:57 | 36.78732 | 31.13907 | 12221 ft | 351 kts | 352° |
| 2026-05-06 15:57 | 36.81164 | 31.13411 | 12766 ft | 357 kts | 352° |
| 2026-05-06 15:58 | 36.83697 | 31.13276 | 13002 ft | 372 kts | 356° |
| 2026-05-06 15:58 | 36.86289 | 31.12724 | 13259 ft | 382 kts | 338° |
| 2026-05-06 15:58 | 36.88533 | 31.10928 | 13798 ft | 383 kts | 317° |
| 2026-05-06 15:58 | 36.90441 | 31.08678 | 14760 ft | 376 kts | 319° |
| 2026-05-06 15:59 | 36.92486 | 31.06594 | 15124 ft | 384 kts | 322° |
| 2026-05-06 15:59 | 36.94658 | 31.04570 | 15407 ft | 394 kts | 324° |
| 2026-05-06 15:59 | 36.96877 | 31.02566 | 16057 ft | 392 kts | 324° |
| 2026-05-06 15:59 | 36.99070 | 31.00550 | 16715 ft | 391 kts | 323° |
| 2026-05-06 16:00 | 37.01222 | 30.98518 | 17234 ft | 393 kts | 322° |
| 2026-05-06 16:00 | 37.03394 | 30.96425 | 17718 ft | 396 kts | 322° |
| 2026-05-06 16:00 | 37.05572 | 30.94301 | 18289 ft | 396 kts | 322° |
| 2026-05-06 16:00 | 37.07746 | 30.92171 | 18783 ft | 397 kts | 322° |
| 2026-05-06 16:01 | 37.09932 | 30.90027 | 19171 ft | 400 kts | 322° |
| 2026-05-06 16:01 | 37.12133 | 30.87868 | 19566 ft | 403 kts | 322° |
| 2026-05-06 16:01 | 37.14351 | 30.85692 | 19977 ft | 406 kts | 322° |
| 2026-05-06 16:01 | 37.16587 | 30.83496 | 20399 ft | 408 kts | 322° |
| 2026-05-06 16:02 | 37.18826 | 30.81294 | 20807 ft | 410 kts | 321° |
| 2026-05-06 16:02 | 37.21047 | 30.79108 | 21224 ft | 412 kts | 321° |
| 2026-05-06 16:02 | 37.23330 | 30.76860 | 21640 ft | 413 kts | 321° |
| 2026-05-06 16:02 | 37.25603 | 30.74621 | 21975 ft | 416 kts | 322° |
| 2026-05-06 16:03 | 37.28049 | 30.72737 | 22263 ft | 421 kts | 336° |
| 2026-05-06 16:03 | 37.30880 | 30.71719 | 22665 ft | 426 kts | 348° |
| 2026-05-06 16:03 | 37.33824 | 30.71228 | 23073 ft | 428 kts | 350° |
| 2026-05-06 16:03 | 37.36787 | 30.70753 | 23411 ft | 430 kts | 350° |
| 2026-05-06 16:04 | 37.39771 | 30.70231 | 23685 ft | 433 kts | 349° |
| 2026-05-06 16:04 | 37.42779 | 30.69839 | 23972 ft | 437 kts | 354° |
| 2026-05-06 16:04 | 37.45823 | 30.69658 | 24294 ft | 438 kts | 355° |
| 2026-05-06 16:04 | 37.48873 | 30.69529 | 24594 ft | 439 kts | 355° |
| 2026-05-06 16:05 | 37.51941 | 30.69376 | 24883 ft | 441 kts | 354° |
| 2026-05-06 16:05 | 37.55008 | 30.69186 | 25171 ft | 442 kts | 354° |
| 2026-05-06 16:05 | 37.58050 | 30.68978 | 25422 ft | 444 kts | 354° |
| 2026-05-06 16:05 | 37.61141 | 30.68773 | 25687 ft | 446 kts | 354° |
| 2026-05-06 16:06 | 37.64237 | 30.68572 | 26021 ft | 446 kts | 354° |
| 2026-05-06 16:06 | 37.67336 | 30.68382 | 26384 ft | 445 kts | 354° |
| 2026-05-06 16:06 | 37.70417 | 30.68195 | 26821 ft | 442 kts | 354° |
| 2026-05-06 16:06 | 37.73481 | 30.68007 | 27251 ft | 440 kts | 354° |
| 2026-05-06 16:07 | 37.76535 | 30.67812 | 27676 ft | 438 kts | 354° |
| 2026-05-06 16:07 | 37.79576 | 30.67621 | 28108 ft | 436 kts | 354° |
| 2026-05-06 16:07 | 37.82599 | 30.67434 | 28530 ft | 434 kts | 354° |
| 2026-05-06 16:07 | 37.85626 | 30.67245 | 28907 ft | 434 kts | 354° |
| 2026-05-06 16:08 | 37.88643 | 30.67299 | 29274 ft | 438 kts | 5° |
| 2026-05-06 16:08 | 37.91599 | 30.68337 | 29668 ft | 445 kts | 18° |
| 2026-05-06 16:08 | 37.94411 | 30.69975 | 30147 ft | 444 kts | 20° |
| 2026-05-06 16:08 | 37.97194 | 30.71674 | 30532 ft | 441 kts | 20° |
| 2026-05-06 16:09 | 37.99959 | 30.73365 | 30765 ft | 442 kts | 20° |
| 2026-05-06 16:09 | 38.02744 | 30.75035 | 31008 ft | 442 kts | 20° |
| 2026-05-06 16:09 | 38.05505 | 30.76662 | 31169 ft | 444 kts | 19° |
| 2026-05-06 16:09 | 38.08315 | 30.78307 | 31319 ft | 446 kts | 19° |
| 2026-05-06 16:10 | 38.11136 | 30.79893 | 31680 ft | 440 kts | 14° |
| 2026-05-06 16:10 | 38.14086 | 30.80677 | 31964 ft | 430 kts | 359° |
| 2026-05-06 16:10 | 38.17050 | 30.80495 | 32205 ft | 425 kts | 350° |
| 2026-05-06 16:10 | 38.19981 | 30.79998 | 32428 ft | 425 kts | 349° |
| 2026-05-06 16:11 | 38.22911 | 30.79467 | 32643 ft | 425 kts | 349° |
| 2026-05-06 16:11 | 38.25842 | 30.78937 | 32897 ft | 425 kts | 349° |
| 2026-05-06 16:11 | 38.27783 | 30.78592 | 33061 ft | 424 kts | 349° |
| 2026-05-06 16:11 | 38.30710 | 30.78084 | 33293 ft | 425 kts | 349° |
| 2026-05-06 16:12 | 38.33646 | 30.77586 | 33520 ft | 425 kts | 349° |
| 2026-05-06 16:12 | 38.36581 | 30.77096 | 33788 ft | 425 kts | 350° |
| 2026-05-06 16:12 | 38.39507 | 30.76611 | 34071 ft | 424 kts | 350° |
| 2026-05-06 16:12 | 38.42443 | 30.76125 | 34078 ft | 427 kts | 350° |
| 2026-05-06 16:13 | 38.48333 | 30.75150 | 34091 ft | 426 kts | 350° |
| 2026-05-06 16:13 | 38.54181 | 30.74181 | 34090 ft | 423 kts | 350° |
| 2026-05-06 16:14 | 38.60002 | 30.73212 | 34095 ft | 420 kts | 350° |
| 2026-05-06 16:14 | 38.65761 | 30.72252 | 34088 ft | 419 kts | 350° |
| 2026-05-06 16:15 | 38.71552 | 30.71285 | 34093 ft | 419 kts | 349° |
| 2026-05-06 16:15 | 38.77331 | 30.70318 | 34095 ft | 419 kts | 350° |
| 2026-05-06 16:16 | 38.83114 | 30.69314 | 34088 ft | 419 kts | 346° |
| 2026-05-06 16:16 | 38.88594 | 30.66917 | 34085 ft | 416 kts | 332° |
| 2026-05-06 16:17 | 38.93759 | 30.63509 | 34086 ft | 418 kts | 332° |
| 2026-05-06 16:17 | 38.98949 | 30.60083 | 34098 ft | 420 kts | 332° |
| 2026-05-06 16:18 | 39.04131 | 30.56688 | 34077 ft | 422 kts | 332° |
| 2026-05-06 16:18 | 39.09372 | 30.53264 | 34076 ft | 422 kts | 332° |
| 2026-05-06 16:19 | 39.14614 | 30.49836 | 34078 ft | 422 kts | 332° |
| 2026-05-06 16:19 | 39.19850 | 30.46407 | 34075 ft | 422 kts | 332° |
| 2026-05-06 16:20 | 39.25079 | 30.42974 | 34082 ft | 421 kts | 332° |
| 2026-05-06 16:20 | 39.30298 | 30.39542 | 34065 ft | 420 kts | 332° |
| 2026-05-06 16:21 | 39.35503 | 30.36115 | 34077 ft | 419 kts | 332° |
| 2026-05-06 16:21 | 39.40665 | 30.32709 | 34081 ft | 419 kts | 332° |
| 2026-05-06 16:22 | 39.45882 | 30.29261 | 34088 ft | 418 kts | 332° |
| 2026-05-06 16:22 | 39.51054 | 30.25923 | 34083 ft | 418 kts | 336° |
| 2026-05-06 16:23 | 39.56428 | 30.23038 | 34077 ft | 418 kts | 337° |
| 2026-05-06 16:23 | 39.61820 | 30.20224 | 34077 ft | 417 kts | 337° |
| 2026-05-06 16:24 | 39.67196 | 30.17379 | 34076 ft | 417 kts | 337° |
| 2026-05-06 16:24 | 39.72561 | 30.14512 | 34082 ft | 417 kts | 337° |
| 2026-05-06 16:25 | 39.77920 | 30.11638 | 34076 ft | 417 kts | 337° |
| 2026-05-06 16:25 | 39.83278 | 30.08761 | 34074 ft | 417 kts | 337° |
| 2026-05-06 16:26 | 39.88600 | 30.05897 | 34077 ft | 417 kts | 337° |
| 2026-05-06 16:26 | 39.93961 | 30.03010 | 34080 ft | 417 kts | 337° |
| 2026-05-06 16:27 | 39.99318 | 30.00118 | 34075 ft | 417 kts | 337° |
| 2026-05-06 16:27 | 40.04673 | 29.97220 | 34077 ft | 416 kts | 337° |
| 2026-05-06 16:28 | 40.10025 | 29.94317 | 34064 ft | 416 kts | 337° |
| 2026-05-06 16:28 | 40.15374 | 29.91411 | 34066 ft | 417 kts | 337° |
| 2026-05-06 16:29 | 40.20733 | 29.88494 | 34062 ft | 417 kts | 337° |
| 2026-05-06 16:29 | 40.26085 | 29.85577 | 34055 ft | 417 kts | 337° |
| 2026-05-06 16:30 | 40.30532 | 29.83148 | 34060 ft | 416 kts | 337° |
| 2026-05-06 16:30 | 40.36781 | 29.79731 | 34047 ft | 415 kts | 337° |
| 2026-05-06 16:31 | 40.42077 | 29.76829 | 34053 ft | 415 kts | 337° |
| 2026-05-06 16:31 | 40.47406 | 29.73904 | 34045 ft | 414 kts | 337° |
| 2026-05-06 16:32 | 40.52732 | 29.70974 | 34056 ft | 414 kts | 337° |
| 2026-05-06 16:32 | 40.58040 | 29.68051 | 34059 ft | 413 kts | 337° |
| 2026-05-06 16:33 | 40.63312 | 29.65142 | 34066 ft | 414 kts | 337° |
| 2026-05-06 16:34 | 40.70565 | 29.59025 | 34073 ft | 416 kts | 322° |
| 2026-05-06 16:34 | 40.75070 | 29.54221 | 34070 ft | 417 kts | 322° |
| 2026-05-06 16:35 | 40.79595 | 29.49426 | 34075 ft | 417 kts | 323° |
| 2026-05-06 16:35 | 40.84126 | 29.44641 | 34074 ft | 417 kts | 323° |
| 2026-05-06 16:36 | 40.88667 | 29.39844 | 34078 ft | 418 kts | 323° |
| 2026-05-06 16:36 | 40.93205 | 29.35041 | 34077 ft | 418 kts | 323° |
| 2026-05-06 16:37 | 40.97709 | 29.30264 | 34075 ft | 418 kts | 323° |
| 2026-05-06 16:37 | 41.02248 | 29.25441 | 34075 ft | 418 kts | 322° |
| 2026-05-06 16:38 | 41.06774 | 29.20624 | 34068 ft | 417 kts | 323° |
| 2026-05-06 16:38 | 41.11273 | 29.15778 | 34073 ft | 417 kts | 320° |
| 2026-05-06 16:39 | 41.15021 | 29.09872 | 34077 ft | 422 kts | 307° |
| 2026-05-06 16:39 | 41.18237 | 29.03355 | 34063 ft | 422 kts | 307° |
| 2026-05-06 16:40 | 41.21459 | 28.96844 | 34061 ft | 421 kts | 307° |
| 2026-05-06 16:40 | 41.24665 | 28.90404 | 34078 ft | 420 kts | 307° |
| 2026-05-06 16:41 | 41.27893 | 28.83923 | 34071 ft | 420 kts | 307° |
| 2026-05-06 16:41 | 41.31118 | 28.77440 | 34078 ft | 420 kts | 307° |
| 2026-05-06 16:42 | 41.34335 | 28.70956 | 34064 ft | 419 kts | 307° |
| 2026-05-06 16:42 | 41.37544 | 28.64474 | 34071 ft | 419 kts | 307° |
| 2026-05-06 16:43 | 41.40744 | 28.57995 | 34078 ft | 418 kts | 306° |
| 2026-05-06 16:43 | 41.43941 | 28.51509 | 34078 ft | 418 kts | 306° |
| 2026-05-06 16:44 | 41.47107 | 28.45079 | 34116 ft | 415 kts | 306° |
| 2026-05-06 16:44 | 41.50283 | 28.38609 | 34100 ft | 418 kts | 306° |
| 2026-05-06 16:45 | 41.53479 | 28.32087 | 34087 ft | 421 kts | 306° |
| 2026-05-06 16:45 | 41.56684 | 28.25536 | 34086 ft | 422 kts | 306° |
| 2026-05-06 16:46 | 41.59897 | 28.18954 | 34079 ft | 423 kts | 306° |
| 2026-05-06 16:46 | 41.63111 | 28.12353 | 34082 ft | 424 kts | 306° |
| 2026-05-06 16:47 | 41.66327 | 28.05734 | 34084 ft | 424 kts | 306° |
| 2026-05-06 16:47 | 41.69511 | 27.99167 | 34080 ft | 423 kts | 306° |
| 2026-05-06 16:48 | 41.72713 | 27.92550 | 34079 ft | 423 kts | 306° |
| 2026-05-06 16:48 | 41.75906 | 27.85936 | 34066 ft | 422 kts | 306° |
| 2026-05-06 16:49 | 41.79090 | 27.79325 | 34087 ft | 422 kts | 306° |
| 2026-05-06 16:49 | 41.82264 | 27.72722 | 34050 ft | 421 kts | 306° |
| 2026-05-06 16:50 | 41.85426 | 27.66128 | 34065 ft | 419 kts | 306° |
| 2026-05-06 16:50 | 41.88575 | 27.59549 | 34058 ft | 418 kts | 306° |
| 2026-05-06 16:51 | 41.91707 | 27.52989 | 34060 ft | 417 kts | 306° |
| 2026-05-06 16:51 | 41.94828 | 27.46439 | 34037 ft | 416 kts | 306° |
| 2026-05-06 16:52 | 41.97912 | 27.39953 | 34052 ft | 414 kts | 306° |
| 2026-05-06 16:52 | 42.01005 | 27.33432 | 34067 ft | 414 kts | 306° |
| 2026-05-06 16:53 | 42.04103 | 27.26889 | 34051 ft | 414 kts | 306° |
| 2026-05-06 16:53 | 42.07170 | 27.20333 | 34031 ft | 414 kts | 304° |
| 2026-05-06 16:54 | 42.10018 | 27.13578 | 34037 ft | 415 kts | 302° |
| 2026-05-06 16:54 | 42.12778 | 27.06808 | 34038 ft | 415 kts | 302° |
| 2026-05-06 16:55 | 42.15560 | 27.00000 | 34040 ft | 415 kts | 302° |
| 2026-05-06 16:55 | 42.18354 | 26.93197 | 34019 ft | 414 kts | 302° |
| 2026-05-06 16:56 | 42.21142 | 26.86412 | 34025 ft | 413 kts | 302° |
| 2026-05-06 16:56 | 42.23931 | 26.79614 | 34038 ft | 413 kts | 302° |
| 2026-05-06 16:57 | 42.26712 | 26.72823 | 34029 ft | 413 kts | 302° |
| 2026-05-06 16:57 | 42.29467 | 26.66076 | 33984 ft | 413 kts | 302° |
| 2026-05-06 16:58 | 42.32236 | 26.59279 | 34018 ft | 413 kts | 302° |
| 2026-05-06 16:58 | 42.35004 | 26.52471 | 34027 ft | 413 kts | 302° |
| 2026-05-06 16:59 | 42.37768 | 26.45655 | 34027 ft | 413 kts | 302° |
| 2026-05-06 16:59 | 42.40533 | 26.38820 | 34001 ft | 414 kts | 302° |
| 2026-05-06 17:00 | 42.43294 | 26.31981 | 34021 ft | 414 kts | 301° |
| 2026-05-06 17:00 | 42.46039 | 26.25162 | 34021 ft | 415 kts | 301° |
| 2026-05-06 17:01 | 42.48799 | 26.18292 | 34015 ft | 415 kts | 302° |
| 2026-05-06 17:01 | 42.51555 | 26.11415 | 34013 ft | 415 kts | 301° |
| 2026-05-06 17:02 | 42.54308 | 26.04528 | 34010 ft | 415 kts | 301° |
| 2026-05-06 17:02 | 42.56590 | 25.98808 | 34008 ft | 415 kts | 301° |
| 2026-05-06 17:03 | 42.59334 | 25.91914 | 34006 ft | 415 kts | 301° |
| 2026-05-06 17:03 | 42.62072 | 25.85021 | 34006 ft | 415 kts | 301° |
| 2026-05-06 17:04 | 42.64807 | 25.78119 | 33996 ft | 415 kts | 301° |
| 2026-05-06 17:04 | 42.67541 | 25.71201 | 33993 ft | 416 kts | 301° |
| 2026-05-06 17:05 | 42.70256 | 25.64315 | 34001 ft | 416 kts | 301° |
| 2026-05-06 17:05 | 42.72996 | 25.57349 | 33997 ft | 418 kts | 301° |
| 2026-05-06 17:06 | 42.75739 | 25.50359 | 33976 ft | 419 kts | 300° |
| 2026-05-06 17:06 | 42.78483 | 25.43347 | 33986 ft | 420 kts | 300° |
| 2026-05-06 17:07 | 42.81215 | 25.36351 | 33984 ft | 421 kts | 300° |
| 2026-05-06 17:07 | 42.83964 | 25.29292 | 33988 ft | 421 kts | 300° |
| 2026-05-06 17:08 | 42.86714 | 25.22216 | 33992 ft | 422 kts | 300° |
| 2026-05-06 17:08 | 42.89458 | 25.15136 | 33981 ft | 422 kts | 300° |
| 2026-05-06 17:09 | 42.92191 | 25.08066 | 33980 ft | 421 kts | 300° |
| 2026-05-06 17:09 | 42.94918 | 25.00994 | 33984 ft | 420 kts | 300° |
| 2026-05-06 17:10 | 42.97635 | 24.93932 | 33965 ft | 420 kts | 300° |
| 2026-05-06 17:10 | 43.00342 | 24.86878 | 33975 ft | 419 kts | 300° |
| 2026-05-06 17:11 | 43.03026 | 24.79868 | 33967 ft | 419 kts | 299° |
| 2026-05-06 17:11 | 43.05743 | 24.72754 | 33960 ft | 419 kts | 299° |
| 2026-05-06 17:12 | 43.08420 | 24.65724 | 33961 ft | 419 kts | 299° |
| 2026-05-06 17:12 | 43.11113 | 24.58637 | 33958 ft | 419 kts | 299° |
| 2026-05-06 17:13 | 43.13803 | 24.51540 | 33962 ft | 420 kts | 299° |
| 2026-05-06 17:13 | 43.16489 | 24.44436 | 33954 ft | 420 kts | 298° |
| 2026-05-06 17:14 | 43.19174 | 24.37317 | 33941 ft | 421 kts | 298° |
| 2026-05-06 17:14 | 43.21847 | 24.30210 | 33954 ft | 421 kts | 298° |
| 2026-05-06 17:15 | 43.24532 | 24.23054 | 33950 ft | 422 kts | 298° |
| 2026-05-06 17:15 | 43.27219 | 24.15873 | 33948 ft | 423 kts | 298° |
| 2026-05-06 17:16 | 43.29901 | 24.08690 | 33940 ft | 423 kts | 297° |
| 2026-05-06 17:16 | 43.32584 | 24.01484 | 33945 ft | 424 kts | 297° |
| 2026-05-06 17:17 | 43.35267 | 23.94260 | 33948 ft | 424 kts | 297° |
| 2026-05-06 17:17 | 43.37927 | 23.87079 | 33941 ft | 425 kts | 297° |
| 2026-05-06 17:18 | 43.40602 | 23.79837 | 33938 ft | 425 kts | 297° |
| 2026-05-06 17:18 | 43.43283 | 23.72564 | 33945 ft | 425 kts | 297° |
| 2026-05-06 17:19 | 43.45953 | 23.65298 | 33953 ft | 426 kts | 297° |
| 2026-05-06 17:19 | 43.48622 | 23.58019 | 33944 ft | 426 kts | 297° |
| 2026-05-06 17:20 | 43.51292 | 23.50717 | 33948 ft | 426 kts | 297° |
| 2026-05-06 17:20 | 43.53959 | 23.43402 | 33945 ft | 427 kts | 297° |
| 2026-05-06 17:21 | 43.56619 | 23.36090 | 33946 ft | 427 kts | 297° |
| 2026-05-06 17:21 | 43.59257 | 23.28817 | 33951 ft | 427 kts | 297° |
| 2026-05-06 17:22 | 43.61911 | 23.21483 | 33950 ft | 427 kts | 296° |
| 2026-05-06 17:22 | 43.64559 | 23.14143 | 33949 ft | 427 kts | 296° |
| 2026-05-06 17:23 | 43.67207 | 23.06787 | 33957 ft | 428 kts | 296° |
| 2026-05-06 17:23 | 43.69850 | 22.99422 | 33954 ft | 428 kts | 296° |
| 2026-05-06 17:24 | 43.72493 | 22.92040 | 33956 ft | 428 kts | 296° |
| 2026-05-06 17:24 | 43.75115 | 22.84694 | 33945 ft | 429 kts | 296° |
| 2026-05-06 17:25 | 43.77752 | 22.77289 | 33954 ft | 429 kts | 296° |
| 2026-05-06 17:25 | 43.80386 | 22.69871 | 33951 ft | 429 kts | 296° |
| 2026-05-06 17:26 | 43.83017 | 22.62441 | 33950 ft | 430 kts | 296° |
| 2026-05-06 17:26 | 43.85645 | 22.54999 | 33941 ft | 430 kts | 295° |
| 2026-05-06 17:27 | 43.88271 | 22.47545 | 33944 ft | 430 kts | 295° |
| 2026-05-06 17:27 | 43.90946 | 22.40114 | 33941 ft | 431 kts | 300° |
| 2026-05-06 17:28 | 43.94575 | 22.33556 | 33957 ft | 432 kts | 310° |
| 2026-05-06 17:28 | 43.98535 | 22.27249 | 33946 ft | 433 kts | 310° |
| 2026-05-06 17:29 | 44.02478 | 22.20921 | 33949 ft | 432 kts | 309° |
| 2026-05-06 17:29 | 44.06396 | 22.14572 | 33942 ft | 432 kts | 309° |
| 2026-05-06 17:30 | 44.10304 | 22.08207 | 33951 ft | 432 kts | 309° |
| 2026-05-06 17:30 | 44.14183 | 22.01868 | 33946 ft | 432 kts | 309° |
| 2026-05-06 17:31 | 44.18081 | 21.95484 | 33953 ft | 432 kts | 309° |
| 2026-05-06 17:31 | 44.21978 | 21.89090 | 33956 ft | 433 kts | 309° |
| 2026-05-06 17:32 | 44.25876 | 21.82681 | 33958 ft | 433 kts | 309° |
| 2026-05-06 17:32 | 44.29769 | 21.76264 | 33948 ft | 433 kts | 308° |
| 2026-05-06 17:33 | 44.33654 | 21.69846 | 33943 ft | 433 kts | 308° |
| 2026-05-06 17:33 | 44.37521 | 21.63444 | 33937 ft | 433 kts | 308° |
| 2026-05-06 17:34 | 44.41404 | 21.57000 | 33943 ft | 433 kts | 308° |
| 2026-05-06 17:34 | 44.45291 | 21.50537 | 33934 ft | 433 kts | 308° |
| 2026-05-06 17:35 | 44.49167 | 21.44077 | 33928 ft | 433 kts | 308° |
| 2026-05-06 17:35 | 44.53039 | 21.37606 | 33937 ft | 433 kts | 308° |
| 2026-05-06 17:36 | 44.58831 | 21.27903 | 33925 ft | 434 kts | 308° |
| 2026-05-06 17:36 | 44.62700 | 21.21403 | 33922 ft | 433 kts | 307° |
| 2026-05-06 17:37 | 44.66565 | 21.14895 | 33919 ft | 434 kts | 307° |
| 2026-05-06 17:37 | 44.70423 | 21.08382 | 33921 ft | 434 kts | 307° |
| 2026-05-06 17:38 | 44.74279 | 21.01859 | 33914 ft | 434 kts | 307° |
| 2026-05-06 17:38 | 44.78136 | 20.95318 | 33921 ft | 434 kts | 307° |
| 2026-05-06 17:39 | 44.81988 | 20.88771 | 33917 ft | 434 kts | 307° |
| 2026-05-06 17:39 | 44.85839 | 20.82212 | 33916 ft | 434 kts | 307° |
| 2026-05-06 17:40 | 44.89691 | 20.75635 | 33914 ft | 435 kts | 307° |
| 2026-05-06 17:40 | 44.93539 | 20.69049 | 33912 ft | 435 kts | 307° |
| 2026-05-06 17:41 | 44.97387 | 20.62448 | 33916 ft | 435 kts | 306° |
| 2026-05-06 17:41 | 45.01231 | 20.55838 | 33911 ft | 436 kts | 306° |
| 2026-05-06 17:42 | 45.05074 | 20.49216 | 33911 ft | 436 kts | 306° |
| 2026-05-06 17:42 | 45.08893 | 20.42619 | 33910 ft | 436 kts | 306° |
| 2026-05-06 17:43 | 45.12733 | 20.35969 | 33918 ft | 436 kts | 306° |
| 2026-05-06 17:43 | 45.16576 | 20.29299 | 33905 ft | 437 kts | 306° |
| 2026-05-06 17:44 | 45.20418 | 20.22615 | 33907 ft | 437 kts | 306° |
| 2026-05-06 17:44 | 45.24258 | 20.15918 | 33907 ft | 437 kts | 306° |
| 2026-05-06 17:45 | 45.28091 | 20.09218 | 33906 ft | 437 kts | 306° |
| 2026-05-06 17:45 | 45.31925 | 20.02500 | 33907 ft | 438 kts | 306° |
| 2026-05-06 17:46 | 45.35737 | 19.95806 | 33904 ft | 438 kts | 306° |
| 2026-05-06 17:46 | 45.39565 | 19.89067 | 33905 ft | 438 kts | 306° |
| 2026-05-06 17:47 | 45.43388 | 19.82320 | 33909 ft | 438 kts | 306° |
| 2026-05-06 17:47 | 45.47215 | 19.75550 | 33905 ft | 438 kts | 305° |
| 2026-05-06 17:48 | 45.51030 | 19.68786 | 33898 ft | 438 kts | 305° |
| 2026-05-06 17:48 | 45.54846 | 19.62002 | 33909 ft | 438 kts | 305° |
| 2026-05-06 17:49 | 45.58654 | 19.55217 | 33902 ft | 438 kts | 305° |
| 2026-05-06 17:49 | 45.61818 | 19.49568 | 33903 ft | 438 kts | 305° |
| 2026-05-06 17:50 | 45.66235 | 19.41662 | 33909 ft | 438 kts | 305° |
| 2026-05-06 17:50 | 45.70036 | 19.34840 | 33905 ft | 438 kts | 305° |
| 2026-05-06 17:51 | 45.73210 | 19.29131 | 33905 ft | 438 kts | 305° |
| 2026-05-06 17:51 | 45.76974 | 19.22346 | 33910 ft | 438 kts | 304° |
| 2026-05-06 17:52 | 45.80758 | 19.15507 | 33908 ft | 438 kts | 304° |
| 2026-05-06 17:52 | 45.84549 | 19.08639 | 33908 ft | 440 kts | 304° |
| 2026-05-06 17:53 | 45.88349 | 19.01737 | 33905 ft | 441 kts | 304° |
| 2026-05-06 17:53 | 45.92158 | 18.94805 | 33904 ft | 443 kts | 304° |
| 2026-05-06 17:54 | 45.96019 | 18.87898 | 33920 ft | 445 kts | 305° |
| 2026-05-06 17:54 | 45.99981 | 18.81036 | 33912 ft | 446 kts | 306° |
| 2026-05-06 17:55 | 46.03925 | 18.74200 | 33908 ft | 447 kts | 306° |
| 2026-05-06 17:55 | 46.07879 | 18.67300 | 33913 ft | 447 kts | 305° |
| 2026-05-06 17:56 | 46.11825 | 18.60381 | 33913 ft | 446 kts | 305° |
| 2026-05-06 17:56 | 46.15756 | 18.53464 | 33922 ft | 446 kts | 305° |
| 2026-05-06 17:57 | 46.19687 | 18.46532 | 33917 ft | 446 kts | 305° |
| 2026-05-06 17:57 | 46.23612 | 18.39593 | 33918 ft | 445 kts | 304° |
| 2026-05-06 17:58 | 46.27517 | 18.32672 | 33914 ft | 444 kts | 304° |
| 2026-05-06 17:58 | 46.31421 | 18.25736 | 33924 ft | 444 kts | 304° |
| 2026-05-06 17:59 | 46.35295 | 18.18835 | 33904 ft | 444 kts | 304° |
| 2026-05-06 17:59 | 46.39188 | 18.11882 | 33897 ft | 444 kts | 304° |
| 2026-05-06 18:00 | 46.43081 | 18.04913 | 33904 ft | 444 kts | 304° |
| 2026-05-06 18:00 | 46.46972 | 17.97931 | 33922 ft | 444 kts | 304° |
| 2026-05-06 18:01 | 46.50864 | 17.90928 | 33901 ft | 445 kts | 305° |
| 2026-05-06 18:01 | 46.54727 | 17.83961 | 33898 ft | 446 kts | 304° |
| 2026-05-06 18:02 | 46.58622 | 17.76918 | 33893 ft | 447 kts | 304° |
| 2026-05-06 18:02 | 46.62512 | 17.69866 | 33890 ft | 448 kts | 304° |
| 2026-05-06 18:03 | 46.66411 | 17.62778 | 33898 ft | 449 kts | 304° |
| 2026-05-06 18:03 | 46.70312 | 17.55670 | 33888 ft | 449 kts | 304° |
| 2026-05-06 18:04 | 46.74212 | 17.48547 | 33888 ft | 449 kts | 304° |
| 2026-05-06 18:04 | 46.78107 | 17.41413 | 33885 ft | 449 kts | 304° |
| 2026-05-06 18:05 | 46.82002 | 17.34261 | 33904 ft | 449 kts | 304° |
| 2026-05-06 18:05 | 46.85864 | 17.27151 | 33887 ft | 448 kts | 304° |
| 2026-05-06 18:06 | 46.89736 | 17.20003 | 33878 ft | 447 kts | 303° |
| 2026-05-06 18:06 | 46.93591 | 17.12870 | 33874 ft | 446 kts | 303° |
| 2026-05-06 18:07 | 46.97435 | 17.05737 | 33867 ft | 445 kts | 303° |
| 2026-05-06 18:07 | 47.01259 | 16.98624 | 33870 ft | 444 kts | 303° |
| 2026-05-06 18:08 | 47.05068 | 16.91519 | 33855 ft | 442 kts | 303° |
| 2026-05-06 18:08 | 47.08856 | 16.84435 | 33855 ft | 440 kts | 303° |
| 2026-05-06 18:09 | 47.12623 | 16.77373 | 33854 ft | 439 kts | 303° |
| 2026-05-06 18:09 | 47.16351 | 16.70366 | 33867 ft | 437 kts | 303° |
| 2026-05-06 18:10 | 47.20093 | 16.63314 | 33845 ft | 437 kts | 303° |
| 2026-05-06 18:10 | 47.23828 | 16.56256 | 33860 ft | 437 kts | 302° |
| 2026-05-06 18:11 | 47.27566 | 16.49176 | 33851 ft | 438 kts | 302° |
| 2026-05-06 18:11 | 47.31251 | 16.42011 | 33841 ft | 438 kts | 301° |
| 2026-05-06 18:12 | 47.34846 | 16.34731 | 33841 ft | 440 kts | 301° |
| 2026-05-06 18:12 | 47.38452 | 16.27399 | 33834 ft | 441 kts | 301° |
| 2026-05-06 18:13 | 47.42066 | 16.20065 | 33829 ft | 442 kts | 301° |
| 2026-05-06 18:13 | 47.45673 | 16.12745 | 33829 ft | 443 kts | 301° |
| 2026-05-06 18:14 | 47.49302 | 16.05367 | 33823 ft | 443 kts | 301° |
| 2026-05-06 18:14 | 47.52927 | 15.97980 | 33811 ft | 443 kts | 300° |
| 2026-05-06 18:15 | 47.56511 | 15.90650 | 33824 ft | 442 kts | 300° |
| 2026-05-06 18:15 | 47.60109 | 15.83276 | 33824 ft | 441 kts | 300° |
| 2026-05-06 18:16 | 47.63705 | 15.75883 | 33812 ft | 441 kts | 300° |
| 2026-05-06 18:16 | 47.67283 | 15.68511 | 33815 ft | 440 kts | 299° |
| 2026-05-06 18:17 | 47.70855 | 15.61126 | 33798 ft | 440 kts | 299° |
| 2026-05-06 18:17 | 47.74431 | 15.53713 | 33787 ft | 442 kts | 299° |
| 2026-05-06 18:18 | 47.78006 | 15.46286 | 33770 ft | 441 kts | 299° |
| 2026-05-06 18:18 | 47.81576 | 15.38849 | 33766 ft | 441 kts | 299° |
| 2026-05-06 18:19 | 47.85130 | 15.31425 | 33758 ft | 440 kts | 298° |
| 2026-05-06 18:19 | 47.88667 | 15.24019 | 33746 ft | 437 kts | 298° |
| 2026-05-06 18:20 | 47.92141 | 15.16726 | 33734 ft | 433 kts | 298° |
| 2026-05-06 18:20 | 47.95635 | 15.09365 | 33732 ft | 431 kts | 298° |
| 2026-05-06 18:21 | 47.99067 | 15.02115 | 33724 ft | 430 kts | 298° |
| 2026-05-06 18:21 | 48.02508 | 14.94825 | 33739 ft | 430 kts | 297° |
| 2026-05-06 18:22 | 48.05961 | 14.87491 | 33715 ft | 431 kts | 297° |
| 2026-05-06 18:22 | 48.09414 | 14.80137 | 33710 ft | 433 kts | 297° |
| 2026-05-06 18:23 | 48.12883 | 14.72732 | 33717 ft | 435 kts | 297° |
| 2026-05-06 18:23 | 48.16338 | 14.65335 | 33720 ft | 437 kts | 297° |
| 2026-05-06 18:24 | 48.19853 | 14.57791 | 33710 ft | 440 kts | 297° |
| 2026-05-06 18:24 | 48.23341 | 14.50281 | 33709 ft | 442 kts | 297° |
| 2026-05-06 18:25 | 48.26859 | 14.42689 | 33712 ft | 444 kts | 297° |
| 2026-05-06 18:25 | 48.30384 | 14.35060 | 33716 ft | 445 kts | 296° |
| 2026-05-06 18:26 | 48.33907 | 14.27415 | 33731 ft | 446 kts | 296° |
| 2026-05-06 18:26 | 48.37431 | 14.19746 | 33719 ft | 446 kts | 296° |
| 2026-05-06 18:27 | 48.40955 | 14.12054 | 33702 ft | 446 kts | 296° |
| 2026-05-06 18:27 | 48.44466 | 14.04370 | 33704 ft | 445 kts | 296° |
| 2026-05-06 18:28 | 48.47966 | 13.96688 | 33693 ft | 444 kts | 296° |
| 2026-05-06 18:28 | 48.51434 | 13.89051 | 33691 ft | 444 kts | 296° |
| 2026-05-06 18:29 | 48.54913 | 13.81371 | 33690 ft | 442 kts | 296° |
| 2026-05-06 18:29 | 48.58379 | 13.73697 | 33698 ft | 441 kts | 296° |
| 2026-05-06 18:30 | 48.61830 | 13.66033 | 33699 ft | 441 kts | 296° |
| 2026-05-06 18:30 | 48.65275 | 13.58373 | 33706 ft | 440 kts | 297° |
| 2026-05-06 18:31 | 48.68975 | 13.50925 | 33720 ft | 444 kts | 300° |
| 2026-05-06 18:31 | 48.72814 | 13.43599 | 33707 ft | 443 kts | 301° |
| 2026-05-06 18:32 | 48.76628 | 13.36282 | 33715 ft | 442 kts | 300° |
| 2026-05-06 18:32 | 48.80411 | 13.28933 | 33727 ft | 442 kts | 300° |
| 2026-05-06 18:33 | 48.84161 | 13.21593 | 33772 ft | 442 kts | 300° |
| 2026-05-06 18:33 | 48.87939 | 13.14171 | 33739 ft | 444 kts | 300° |
| 2026-05-06 18:34 | 48.91720 | 13.06725 | 33733 ft | 445 kts | 300° |
| 2026-05-06 18:34 | 48.95500 | 12.99265 | 33743 ft | 445 kts | 300° |
| 2026-05-06 18:35 | 48.99276 | 12.91790 | 33740 ft | 446 kts | 300° |
| 2026-05-06 18:35 | 49.03057 | 12.84285 | 33742 ft | 446 kts | 300° |
| 2026-05-06 18:36 | 49.06814 | 12.76806 | 33749 ft | 447 kts | 300° |
| 2026-05-06 18:36 | 49.10589 | 12.69269 | 33749 ft | 447 kts | 300° |
| 2026-05-06 18:37 | 49.13756 | 12.62932 | 33752 ft | 448 kts | 300° |
| 2026-05-06 18:37 | 49.18142 | 12.54130 | 33752 ft | 448 kts | 299° |
| 2026-05-06 18:38 | 49.21910 | 12.46543 | 33774 ft | 449 kts | 299° |
| 2026-05-06 18:38 | 49.25042 | 12.40221 | 33766 ft | 449 kts | 299° |
| 2026-05-06 18:39 | 49.28815 | 12.32585 | 33757 ft | 449 kts | 299° |
| 2026-05-06 18:40 | 49.34458 | 12.21125 | 33776 ft | 449 kts | 300° |
| 2026-05-06 18:40 | 49.38219 | 12.13460 | 33766 ft | 448 kts | 299° |
| 2026-05-06 18:41 | 49.41931 | 12.05871 | 33763 ft | 447 kts | 299° |
| 2026-05-06 18:41 | 49.45661 | 11.98224 | 33779 ft | 446 kts | 299° |
| 2026-05-06 18:42 | 49.49385 | 11.90567 | 33766 ft | 446 kts | 299° |
| 2026-05-06 18:42 | 49.53089 | 11.82930 | 33770 ft | 446 kts | 299° |
| 2026-05-06 18:43 | 49.56791 | 11.75275 | 33767 ft | 446 kts | 299° |
| 2026-05-06 18:43 | 49.60503 | 11.67568 | 33798 ft | 452 kts | 299° |
| 2026-05-06 18:44 | 49.64255 | 11.59761 | 33775 ft | 451 kts | 299° |
| 2026-05-06 18:44 | 49.67975 | 11.52013 | 33774 ft | 447 kts | 299° |
| 2026-05-06 18:45 | 49.71633 | 11.44364 | 33788 ft | 445 kts | 299° |
| 2026-05-06 18:45 | 49.75301 | 11.36667 | 33792 ft | 443 kts | 299° |
| 2026-05-06 18:46 | 49.78975 | 11.28924 | 33811 ft | 451 kts | 300° |
| 2026-05-06 18:46 | 49.82723 | 11.21003 | 33795 ft | 457 kts | 300° |
| 2026-05-06 18:47 | 49.86480 | 11.13059 | 33787 ft | 456 kts | 300° |
| 2026-05-06 18:47 | 49.90222 | 11.05124 | 33808 ft | 455 kts | 299° |
| 2026-05-06 18:48 | 49.93921 | 10.97248 | 33798 ft | 454 kts | 299° |
| 2026-05-06 18:48 | 49.97640 | 10.89304 | 33797 ft | 454 kts | 300° |
| 2026-05-06 18:49 | 50.01347 | 10.81360 | 33795 ft | 454 kts | 300° |
| 2026-05-06 18:49 | 50.05055 | 10.73390 | 33802 ft | 454 kts | 300° |
| 2026-05-06 18:50 | 50.08766 | 10.65392 | 33783 ft | 456 kts | 300° |
| 2026-05-06 18:50 | 50.12473 | 10.57378 | 33826 ft | 456 kts | 300° |
| 2026-05-06 18:51 | 50.16164 | 10.49373 | 33796 ft | 458 kts | 300° |
| 2026-05-06 18:51 | 50.19887 | 10.41275 | 33801 ft | 460 kts | 299° |
| 2026-05-06 18:52 | 50.23590 | 10.33123 | 33790 ft | 460 kts | 299° |
| 2026-05-06 18:52 | 50.27251 | 10.24925 | 33790 ft | 459 kts | 298° |
| 2026-05-06 18:53 | 50.30898 | 10.16730 | 33809 ft | 459 kts | 299° |
| 2026-05-06 18:53 | 50.34518 | 10.08585 | 33799 ft | 458 kts | 299° |
| 2026-05-06 18:54 | 50.38158 | 10.00378 | 33790 ft | 458 kts | 299° |
| 2026-05-06 18:54 | 50.41784 | 9.92177 | 33802 ft | 457 kts | 299° |
| 2026-05-06 18:55 | 50.45405 | 9.83963 | 33784 ft | 458 kts | 299° |
| 2026-05-06 18:55 | 50.49025 | 9.75724 | 33812 ft | 458 kts | 300° |
| 2026-05-06 18:56 | 50.52635 | 9.67483 | 33797 ft | 458 kts | 300° |
| 2026-05-06 18:56 | 50.56240 | 9.59226 | 33796 ft | 457 kts | 300° |
| 2026-05-06 18:57 | 50.59836 | 9.50965 | 33799 ft | 457 kts | 299° |
| 2026-05-06 18:57 | 50.63418 | 9.42709 | 33798 ft | 456 kts | 299° |
| 2026-05-06 18:58 | 50.66992 | 9.34446 | 33827 ft | 456 kts | 300° |
| 2026-05-06 18:58 | 50.70527 | 9.26245 | 33813 ft | 455 kts | 300° |
| 2026-05-06 18:59 | 50.74088 | 9.17961 | 33811 ft | 455 kts | 300° |
| 2026-05-06 18:59 | 50.77640 | 9.09668 | 33581 ft | 457 kts | 300° |
| 2026-05-06 18:59 | 50.79419 | 9.05506 | 33302 ft | 456 kts | 300° |
| 2026-05-06 19:00 | 50.81193 | 9.01353 | 33029 ft | 455 kts | 300° |
| 2026-05-06 19:00 | 50.82960 | 8.97209 | 32319 ft | 455 kts | 301° |
| 2026-05-06 19:00 | 50.84811 | 8.93154 | 31673 ft | 455 kts | 304° |
| 2026-05-06 19:00 | 50.86778 | 8.89210 | 30952 ft | 457 kts | 306° |
| 2026-05-06 19:01 | 50.88796 | 8.85287 | 30242 ft | 459 kts | 306° |
| 2026-05-06 19:01 | 50.90788 | 8.81412 | 29445 ft | 460 kts | 306° |
| 2026-05-06 19:01 | 50.92800 | 8.77455 | 28597 ft | 461 kts | 306° |
| 2026-05-06 19:01 | 50.94798 | 8.73477 | 27778 ft | 461 kts | 305° |
| 2026-05-06 19:02 | 50.96725 | 8.69462 | 27342 ft | 451 kts | 302° |
| 2026-05-06 19:02 | 50.98442 | 8.65377 | 27076 ft | 441 kts | 299° |
| 2026-05-06 19:02 | 51.00073 | 8.61218 | 26832 ft | 447 kts | 298° |
| 2026-05-06 19:02 | 51.01709 | 8.56957 | 26580 ft | 454 kts | 298° |
| 2026-05-06 19:03 | 51.03355 | 8.52685 | 26342 ft | 451 kts | 299° |
| 2026-05-06 19:03 | 51.04993 | 8.48477 | 26075 ft | 445 kts | 300° |
| 2026-05-06 19:03 | 51.06632 | 8.44304 | 25895 ft | 445 kts | 300° |
| 2026-05-06 19:03 | 51.08275 | 8.40137 | 25723 ft | 446 kts | 300° |
| 2026-05-06 19:04 | 51.09921 | 8.35976 | 25458 ft | 442 kts | 300° |
| 2026-05-06 19:04 | 51.11549 | 8.31861 | 24908 ft | 437 kts | 300° |
| 2026-05-06 19:04 | 51.13155 | 8.27797 | 24373 ft | 432 kts | 300° |
| 2026-05-06 19:04 | 51.14728 | 8.23810 | 24027 ft | 430 kts | 300° |
| 2026-05-06 19:05 | 51.16323 | 8.19758 | 23917 ft | 420 kts | 300° |
| 2026-05-06 19:05 | 51.17829 | 8.15929 | 23856 ft | 405 kts | 300° |
| 2026-05-06 19:05 | 51.19295 | 8.12198 | 23815 ft | 391 kts | 300° |
| 2026-05-06 19:05 | 51.20723 | 8.08556 | 23539 ft | 385 kts | 300° |
| 2026-05-06 19:06 | 51.22135 | 8.04942 | 23038 ft | 384 kts | 300° |
| 2026-05-06 19:06 | 51.23554 | 8.01304 | 22119 ft | 391 kts | 300° |
| 2026-05-06 19:06 | 51.25016 | 7.97548 | 21121 ft | 402 kts | 301° |
| 2026-05-06 19:06 | 51.26491 | 7.93758 | 20631 ft | 399 kts | 301° |
| 2026-05-06 19:07 | 51.27944 | 7.90023 | 20233 ft | 393 kts | 301° |
| 2026-05-06 19:07 | 51.29378 | 7.86334 | 19784 ft | 389 kts | 301° |
| 2026-05-06 19:07 | 51.30797 | 7.82674 | 19316 ft | 386 kts | 301° |
| 2026-05-06 19:07 | 51.32206 | 7.79038 | 18843 ft | 384 kts | 301° |
| 2026-05-06 19:08 | 51.33565 | 7.75376 | 18399 ft | 380 kts | 295° |
| 2026-05-06 19:08 | 51.34252 | 7.71346 | 18009 ft | 377 kts | 275° |
| 2026-05-06 19:08 | 51.34208 | 7.67168 | 17482 ft | 376 kts | 262° |
| 2026-05-06 19:08 | 51.33665 | 7.63084 | 16993 ft | 374 kts | 257° |
| 2026-05-06 19:09 | 51.33023 | 7.59056 | 16464 ft | 374 kts | 256° |
| 2026-05-06 19:09 | 51.32365 | 7.55047 | 15948 ft | 372 kts | 256° |
| 2026-05-06 19:09 | 51.31711 | 7.51046 | 15449 ft | 371 kts | 257° |
| 2026-05-06 19:09 | 51.31068 | 7.47064 | 14953 ft | 369 kts | 257° |
| 2026-05-06 19:10 | 51.30433 | 7.43096 | 14470 ft | 368 kts | 257° |
| 2026-05-06 19:10 | 51.29805 | 7.39137 | 13976 ft | 367 kts | 257° |
| 2026-05-06 19:10 | 51.29178 | 7.35181 | 13457 ft | 367 kts | 257° |
| 2026-05-06 19:10 | 51.28553 | 7.31231 | 12909 ft | 366 kts | 258° |
| 2026-05-06 19:11 | 51.27930 | 7.27302 | 12391 ft | 365 kts | 258° |
| 2026-05-06 19:11 | 51.27307 | 7.23378 | 11878 ft | 363 kts | 258° |
| 2026-05-06 19:11 | 51.26686 | 7.19479 | 11452 ft | 360 kts | 258° |
| 2026-05-06 19:11 | 51.26084 | 7.15709 | 11300 ft | 349 kts | 258° |
| 2026-05-06 19:12 | 51.25492 | 7.12015 | 11148 ft | 338 kts | 258° |
| 2026-05-06 19:12 | 51.24916 | 7.08429 | 10998 ft | 328 kts | 258° |
| 2026-05-06 19:12 | 51.24358 | 7.04953 | 10861 ft | 319 kts | 258° |
| 2026-05-06 19:12 | 51.23815 | 7.01574 | 10727 ft | 310 kts | 258° |
| 2026-05-06 19:13 | 51.23286 | 6.98287 | 10588 ft | 302 kts | 258° |
| 2026-05-06 19:13 | 51.22770 | 6.95092 | 10462 ft | 293 kts | 258° |
| 2026-05-06 19:13 | 51.22271 | 6.92001 | 10403 ft | 284 kts | 258° |
| 2026-05-06 19:13 | 51.21783 | 6.88991 | 10281 ft | 277 kts | 258° |
| 2026-05-06 19:14 | 51.21306 | 6.86059 | 10163 ft | 270 kts | 259° |
| 2026-05-06 19:14 | 51.20841 | 6.83205 | 10050 ft | 262 kts | 258° |
| 2026-05-06 19:14 | 51.20145 | 6.80522 | 9858 ft | 265 kts | 238° |
| 2026-05-06 19:14 | 51.19035 | 6.78186 | 9664 ft | 265 kts | 234° |
| 2026-05-06 19:15 | 51.17869 | 6.75900 | 9388 ft | 266 kts | 233° |
| 2026-05-06 19:15 | 51.16691 | 6.73614 | 9124 ft | 267 kts | 233° |
| 2026-05-06 19:15 | 51.15507 | 6.71325 | 8859 ft | 267 kts | 233° |
| 2026-05-06 19:15 | 51.14342 | 6.69077 | 8597 ft | 266 kts | 233° |
| 2026-05-06 19:16 | 51.13165 | 6.66804 | 8325 ft | 265 kts | 233° |
| 2026-05-06 19:16 | 51.11995 | 6.64541 | 8058 ft | 264 kts | 232° |
| 2026-05-06 19:16 | 51.10839 | 6.62286 | 7821 ft | 261 kts | 233° |
| 2026-05-06 19:16 | 51.09703 | 6.60064 | 7556 ft | 255 kts | 233° |
| 2026-05-06 19:17 | 51.08597 | 6.57904 | 7308 ft | 249 kts | 233° |
| 2026-05-06 19:17 | 51.07713 | 6.55607 | 7063 ft | 241 kts | 257° |
| 2026-05-06 19:17 | 51.07665 | 6.53026 | 6840 ft | 234 kts | 288° |
| 2026-05-06 19:17 | 51.08465 | 6.50802 | 6467 ft | 234 kts | 317° |
| 2026-05-06 19:18 | 51.09685 | 6.49094 | 6137 ft | 233 kts | 322° |
| 2026-05-06 19:18 | 51.10970 | 6.47536 | 5757 ft | 230 kts | 333° |
| 2026-05-06 19:18 | 51.12491 | 6.46951 | 5377 ft | 227 kts | 5° |
| 2026-05-06 19:18 | 51.13992 | 6.47626 | 5059 ft | 222 kts | 21° |
| 2026-05-06 19:19 | 51.15370 | 6.48646 | 4721 ft | 216 kts | 32° |
| 2026-05-06 19:19 | 51.16309 | 6.50438 | 4366 ft | 209 kts | 59° |
| 2026-05-06 19:19 | 51.17071 | 6.52349 | 3959 ft | 202 kts | 52° |
| 2026-05-06 19:19 | 51.17911 | 6.54128 | 3492 ft | 200 kts | 51° |
| 2026-05-06 19:20 | 51.18749 | 6.55880 | 3097 ft | 195 kts | 51° |
| 2026-05-06 19:20 | 51.19547 | 6.57504 | 2969 ft | 180 kts | 49° |
| 2026-05-06 19:20 | 51.20319 | 6.59060 | 2762 ft | 178 kts | 50° |
| 2026-05-06 19:20 | 51.21065 | 6.60618 | 2520 ft | 175 kts | 51° |
| 2026-05-06 19:21 | 51.21786 | 6.62140 | 2280 ft | 168 kts | 51° |
| 2026-05-06 19:21 | 51.22460 | 6.63568 | 2063 ft | 156 kts | 50° |
| 2026-05-06 19:21 | 51.23102 | 6.64926 | 1874 ft | 150 kts | 50° |
| 2026-05-06 19:21 | 51.23710 | 6.66210 | 1670 ft | 139 kts | 50° |
| 2026-05-06 19:22 | 51.24275 | 6.67403 | 1488 ft | 136 kts | 50° |
| 2026-05-06 19:22 | 51.24845 | 6.68608 | 1302 ft | 137 kts | 49° |
| 2026-05-06 19:22 | 51.25422 | 6.69824 | 1100 ft | 138 kts | 49° |
| 2026-05-06 19:22 | 51.25999 | 6.71041 | 916 ft | 142 kts | 50° |
| 2026-05-06 19:23 | 51.26617 | 6.72348 | 708 ft | 155 kts | 50° |
| 2026-05-06 19:23 | 51.27312 | 6.73810 | 432 ft | 174 kts | 51° |
| 2026-05-06 19:23 | 51.28045 | 6.75358 | 221 ft | 175 kts | 51° |
| 2026-05-06 19:23 | 51.28733 | 6.76818 | 131 ft | 146 kts | 55° |
| 2026-05-06 19:24 | 51.29223 | 6.77813 | 136 ft | 83 kts | 49° |
| 2026-05-06 19:24 | 51.29391 | 6.78199 | 144 ft | 52 kts | 47° |